N22318 KTEB-KLGA

Flight info

Callsign N22318
Flight time N/A
Altitude VFR/020
Route
Aircraft C152/L-DOV/C

Departure

Time 2026-05-08 19:55
Airport Teterboro Airport (KTEB)

Arrival

Time N/A
Airport LaGuardia Airport (KLGA)
Time Latitude Longitude Altitude Speed Heading
2026-05-08 19:54 40.83705 -74.06156 475 ft 92 kts 85°
2026-05-08 19:55 40.83987 -74.05453 605 ft 80 kts 18°
2026-05-08 19:55 40.84475 -74.05386 744 ft 73 kts
2026-05-08 19:55 40.84962 -74.05198 853 ft 80 kts 14°
2026-05-08 19:55 40.85435 -74.04846 992 ft 79 kts 14°
2026-05-08 19:56 40.85928 -74.04688 1038 ft 67 kts 338°
2026-05-08 19:56 40.86460 -74.04494 989 ft 96 kts 15°
2026-05-08 19:56 40.87052 -74.04034 1070 ft 97 kts 19°
2026-05-08 19:56 40.87547 -74.03444 1207 ft 95 kts 33°
2026-05-08 19:57 40.87840 -74.02604 1232 ft 117 kts 63°
2026-05-08 19:57 40.88130 -74.01546 1168 ft 120 kts 67°
2026-05-08 19:57 40.88349 -74.00455 1096 ft 123 kts 78°
2026-05-08 19:57 40.88435 -73.99367 1131 ft 121 kts 86°
2026-05-08 19:58 40.88397 -73.98274 1235 ft 115 kts 94°
2026-05-08 19:58 40.88322 -73.97205 1300 ft 119 kts 101°
2026-05-08 19:58 40.88147 -73.96037 1197 ft 134 kts 108°
2026-05-08 19:58 40.87749 -73.94960 1192 ft 128 kts 141°
2026-05-08 19:59 40.87118 -73.94401 1148 ft 91 kts 191°
2026-05-08 19:59 40.86478 -73.94371 1151 ft 93 kts 198°
2026-05-08 19:59 40.85893 -73.94466 1265 ft 88 kts 200°
2026-05-08 19:59 40.85670 -73.94508 1325 ft 81 kts 204°
2026-05-08 20:00 40.85126 -73.94693 1400 ft 75 kts 212°
2026-05-08 20:00 40.84636 -73.94919 1484 ft 73 kts 212°
2026-05-08 20:00 40.84129 -73.95113 1510 ft 75 kts 208°
2026-05-08 20:00 40.83612 -73.95252 1556 ft 80 kts 205°
2026-05-08 20:01 40.83098 -73.95450 1658 ft 74 kts 213°
2026-05-08 20:01 40.82638 -73.95694 1699 ft 76 kts 219°
2026-05-08 20:01 40.82180 -73.95963 1906 ft 67 kts 221°
2026-05-08 20:01 40.82022 -73.96059 1957 ft 65 kts 220°
2026-05-08 20:02 40.81575 -73.96388 1849 ft 86 kts 221°
2026-05-08 20:02 40.81009 -73.96766 1796 ft 93 kts 215°
2026-05-08 20:02 40.80431 -73.97128 1780 ft 93 kts 219°
2026-05-08 20:02 40.79848 -73.97507 1808 ft 90 kts 217°
2026-05-08 20:03 40.79307 -73.97778 1818 ft 88 kts 216°
2026-05-08 20:03 40.78896 -73.98231 1768 ft 84 kts 246°
2026-05-08 20:03 40.78617 -73.98903 1742 ft 80 kts 245°
2026-05-08 20:04 40.78156 -73.99341 1494 ft 90 kts 216°
2026-05-08 20:04 40.77579 -73.99577 1579 ft 89 kts 206°
2026-05-08 20:04 40.77328 -73.99641 1584 ft 90 kts 205°
2026-05-08 20:04 40.77101 -73.99708 1603 ft 88 kts 207°
2026-05-08 20:05 40.76558 -73.99978 1665 ft 85 kts 220°
2026-05-08 20:05 40.76010 -74.00293 1607 ft 97 kts 211°
2026-05-08 20:05 40.75680 -74.00486 1661 ft 86 kts 222°
2026-05-08 20:05 40.75323 -74.00766 1539 ft 0 kts 276°
2026-05-08 20:06 40.74917 -74.00998 1578 ft 81 kts 218°
2026-05-08 20:06 40.74398 -74.01277 1650 ft 82 kts 194°
2026-05-08 20:06 40.74180 -74.01243 1692 ft 84 kts 187°
2026-05-08 20:06 40.73716 -74.01203 1638 ft 92 kts 199°
2026-05-08 20:07 40.73211 -74.01450 929 ft 109 kts 207°
2026-05-08 20:07 40.72721 -74.01579 1217 ft 72 kts 209°
2026-05-08 20:07 40.72181 -74.01697 1271 ft 79 kts 207°
2026-05-08 20:07 40.71613 -74.01783 1360 ft 81 kts 201°
2026-05-08 20:08 40.71026 -74.01846 1447 ft 84 kts 195°
2026-05-08 20:08 40.70448 -74.01822 1576 ft 86 kts 187°
2026-05-08 20:08 40.70169 -74.01711 1586 ft 85 kts 157°
2026-05-08 20:09 40.70131 -74.01675 1568 ft 91 kts 153°
2026-05-08 20:09 40.69838 -74.00797 1480 ft 114 kts 86°
2026-05-08 20:09 40.69999 -73.99851 1562 ft 109 kts 73°
2026-05-08 20:09 40.70070 -73.99400 1669 ft 104 kts 75°
2026-05-08 20:10 40.70226 -73.98469 1581 ft 113 kts 78°
2026-05-08 20:10 40.70255 -73.97691 996 ft 103 kts 62°
2026-05-08 20:10 40.70490 -73.96760 1053 ft 105 kts 59°
2026-05-08 20:10 40.70770 -73.95832 1079 ft 113 kts 66°
2026-05-08 20:11 40.71089 -73.94931 1136 ft 107 kts 50°
2026-05-08 20:11 40.71382 -73.94227 1185 ft 111 kts 64°
2026-05-08 20:11 40.71508 -73.93654 1277 ft 109 kts 68°
2026-05-08 20:11 40.71664 -73.92995 1216 ft 118 kts 65°